Time;durP1;ratioP1;P1;durP2;ratioP2;P2;SDS_P1;SDS_P2;PMS_P1;PMS_P2;Temp;Humidity;BMP_temperature;BMP_pressure;BME280_temperature;BME280_humidity;BME280_pressure;Samples;Min_cycle;Max_cycle;Signal;HPM_P1;HPM_P2
2022/02/28 00:00:49;;;;;;;5.33;4.83;;;;;;;1.14;68.19;100064.47;5021971;27;102598;-72
2022/02/28 00:03:17;;;;;;;7.17;5.50;;;;;;;1.09;68.08;100068.00;5023666;27;103968;-72
2022/02/28 00:05:45;;;;;;;9.33;7.40;;;;;;;0.65;69.71;100072.88;5023618;27;103171;-72
2022/02/28 00:08:15;;;;;;;7.67;6.10;;;;;;;0.80;69.90;100062.28;5023016;27;103197;-73
2022/02/28 00:10:43;;;;;;;9.13;7.20;;;;;;;0.61;69.75;100060.78;5026082;27;102660;-72
2022/02/28 00:13:11;;;;;;;8.50;6.60;;;;;;;0.64;70.57;100060.75;5023902;27;102669;-72
2022/02/28 00:15:40;;;;;;;8.20;6.93;;;;;;;0.36;71.41;100055.84;5022892;27;104167;-73
2022/02/28 00:18:08;;;;;;;7.67;6.87;;;;;;;0.04;72.09;100057.00;5023922;27;103179;-73
2022/02/28 00:20:36;;;;;;;7.90;6.80;;;;;;;-0.09;72.61;100051.91;5025478;27;102649;-73
2022/02/28 00:23:04;;;;;;;9.93;7.03;;;;;;;-0.10;72.97;100052.78;5020941;27;104086;-73
2022/02/28 00:25:34;;;;;;;7.70;6.27;;;;;;;0.21;72.00;100052.50;5026539;27;103463;-73
2022/02/28 00:28:03;;;;;;;8.00;6.37;;;;;;;0.42;70.88;100045.34;5025839;27;103206;-73
2022/02/28 00:30:32;;;;;;;8.73;6.43;;;;;;;0.57;71.00;100049.53;5024468;27;102789;-73
2022/02/28 00:33:01;;;;;;;8.50;7.17;;;;;;;0.75;69.76;100057.16;5020979;27;103480;-73
2022/02/28 00:35:29;;;;;;;7.33;6.27;;;;;;;0.79;69.89;100055.34;5025726;27;103836;-72
2022/02/28 00:38:01;;;;;;;10.20;7.47;;;;;;;0.70;70.28;100060.69;5020277;27;103742;-73
2022/02/28 00:40:29;;;;;;;9.73;7.43;;;;;;;0.64;70.93;100060.75;5023350;27;102644;-73
2022/02/28 00:42:58;;;;;;;9.83;7.63;;;;;;;0.77;70.36;100057.97;5020273;27;103041;-73
2022/02/28 00:45:26;;;;;;;10.23;9.03;;;;;;;0.55;71.33;100057.38;5028797;27;103815;-73
2022/02/28 00:47:55;;;;;;;9.37;7.50;;;;;;;0.55;72.06;100052.16;5031720;27;103135;-69
2022/02/28 00:50:23;;;;;;;9.23;8.00;;;;;;;0.19;73.32;100055.13;5023349;27;102714;-69
2022/02/28 00:52:51;;;;;;;8.77;7.87;;;;;;;0.52;72.22;100057.41;5023077;27;102690;-69
2022/02/28 00:55:19;;;;;;;10.47;8.60;;;;;;;0.23;73.00;100054.22;5026346;27;103723;-68
2022/02/28 00:57:47;;;;;;;10.80;7.30;;;;;;;0.48;72.31;100047.03;5024724;27;103252;-68
2022/02/28 01:00:18;;;;;;;10.10;8.67;;;;;;;0.24;72.76;100060.28;5023699;27;103120;-69
2022/02/28 01:02:47;;;;;;;8.50;7.57;;;;;;;0.20;73.51;100038.66;5021594;27;104025;-69
2022/02/28 01:05:17;;;;;;;9.23;7.20;;;;;;;0.41;72.83;100054.03;5023226;27;103212;-68
2022/02/28 01:07:45;;;;;;;9.40;7.07;;;;;;;0.45;72.28;100050.53;5022901;27;103243;-68
2022/02/28 01:10:16;;;;;;;9.27;8.13;;;;;;;0.39;73.05;100060.97;5020472;27;103071;-69
2022/02/28 01:12:47;;;;;;;8.97;7.33;;;;;;;0.51;71.98;100063.47;5022968;27;103598;-69
2022/02/28 01:15:17;;;;;;;7.70;6.30;;;;;;;0.59;71.55;100059.03;5021249;27;104256;-72
2022/02/28 01:17:51;;;;;;;6.90;6.07;;;;;;;0.67;71.05;100060.72;5023216;27;104075;-72
2022/02/28 01:20:20;;;;;;;8.77;7.37;;;;;;;0.28;72.24;100062.81;5022586;27;102618;-73
2022/02/28 01:22:49;;;;;;;8.17;7.30;;;;;;;0.25;73.46;100062.88;5027186;27;104204;-72
2022/02/28 01:25:20;;;;;;;9.70;8.20;;;;;;;-0.04;74.27;100057.06;5023825;27;103965;-72
2022/02/28 01:27:51;;;;;;;7.63;6.10;;;;;;;0.24;73.20;100058.56;5018993;27;103308;-69
2022/02/28 01:30:20;;;;;;;7.00;6.07;;;;;;;0.40;72.36;100059.25;5023466;27;102624;-69
2022/02/28 01:32:48;;;;;;;7.03;5.70;;;;;;;0.45;72.03;100057.47;5024341;27;103501;-69
2022/02/28 01:35:16;;;;;;;7.53;6.30;;;;;;;0.50;71.57;100048.75;5019843;27;103268;-69
2022/02/28 01:37:44;;;;;;;9.53;7.70;;;;;;;0.40;72.12;100051.44;5022255;27;103234;-69
2022/02/28 01:40:14;;;;;;;7.70;6.03;;;;;;;0.45;71.40;100045.31;5023182;27;102586;-73
2022/02/28 01:42:43;;;;;;;7.30;6.30;;;;;;;-0.06;74.28;100051.03;5022057;27;102700;-73
2022/02/28 01:45:13;;;;;;;7.30;6.07;;;;;;;0.18;73.06;100043.00;5022607;27;103030;-73
2022/02/28 01:47:43;;;;;;;9.73;8.40;;;;;;;0.16;72.23;100047.38;5026569;27;104245;-73
2022/02/28 01:50:11;;;;;;;8.07;6.97;;;;;;;0.11;72.68;100043.94;5020182;27;103135;-73
2022/02/28 01:52:41;;;;;;;12.20;8.93;;;;;;;-0.15;73.46;100036.38;5023836;27;103032;-73
2022/02/28 01:55:10;;;;;;;8.17;6.90;;;;;;;-0.02;73.25;100042.31;5020233;27;103266;-72
2022/02/28 01:57:38;;;;;;;8.13;6.47;;;;;;;-0.06;73.44;100035.44;5021086;27;104171;-73
2022/02/28 02:00:13;;;;;;;8.80;7.90;;;;;;;0.04;73.06;100031.88;5019145;27;102737;-72
2022/02/28 02:02:44;;;;;;;10.67;7.57;;;;;;;0.06;73.04;100035.31;5012348;27;104311;-73
2022/02/28 02:05:13;;;;;;;11.07;8.10;;;;;;;-0.05;73.16;100035.41;5020091;27;103548;-73
2022/02/28 02:07:42;;;;;;;8.67;7.53;;;;;;;0.02;73.13;100038.84;5018493;27;105846;-73
2022/02/28 02:10:12;;;;;;;8.50;6.33;;;;;;;0.07;73.08;100039.66;5018320;27;102696;-73
2022/02/28 02:12:43;;;;;;;7.07;5.70;;;;;;;0.07;73.30;100034.44;5021853;27;102781;-73
2022/02/28 02:15:15;;;;;;;8.67;7.03;;;;;;;0.02;73.37;100031.03;5019309;27;105499;-72
2022/02/28 02:17:45;;;;;;;9.13;7.87;;;;;;;-0.01;73.15;100033.66;5016812;27;104234;-72
2022/02/28 02:20:33;;;;;;;10.50;7.00;;;;;;;-0.29;74.95;100039.94;5024440;27;102632;-73
2022/02/28 02:23:03;;;;;;;8.20;7.37;;;;;;;-0.26;74.15;100042.53;5026947;27;104166;-73
2022/02/28 02:25:32;;;;;;;8.77;7.10;;;;;;;-0.15;73.91;100038.09;5019066;27;104012;-69
2022/02/28 02:28:00;;;;;;;9.43;6.60;;;;;;;-0.27;74.57;100046.84;5018459;27;104238;-69
2022/02/28 02:30:29;;;;;;;9.20;7.43;;;;;;;-0.33;74.15;100044.31;5018801;27;102688;-69
2022/02/28 02:32:59;;;;;;;6.50;5.80;;;;;;;-0.18;74.12;100046.78;5016524;27;103218;-69
2022/02/28 02:35:27;;;;;;;9.63;8.07;;;;;;;-0.61;75.35;100047.97;5020682;27;103694;-69
2022/02/28 02:37:57;;;;;;;8.60;6.10;;;;;;;-0.37;74.81;100049.53;5019172;27;104387;-69
2022/02/28 02:40:25;;;;;;;8.60;6.63;;;;;;;-0.55;74.84;100055.72;5024169;27;103468;-72
2022/02/28 02:42:53;;;;;;;7.90;5.70;;;;;;;-0.36;74.96;100046.06;5018873;27;104070;-72
2022/02/28 02:45:21;;;;;;;8.93;7.33;;;;;;;-0.55;75.41;100044.47;5021799;27;103431;-73
2022/02/28 02:47:49;;;;;;;7.67;6.73;;;;;;;-0.43;74.86;100045.25;5023352;27;103305;-73
2022/02/28 02:50:18;;;;;;;10.03;8.10;;;;;;;-0.39;74.59;100043.50;5025769;27;102650;-73
2022/02/28 02:52:47;;;;;;;12.40;8.60;;;;;;;-0.77;75.96;100044.59;5024777;27;103986;-72
2022/02/28 02:55:20;;;;;;;7.57;6.63;;;;;;;-0.76;76.71;100041.13;5021405;27;103236;-73
2022/02/28 02:57:48;;;;;;;9.00;7.73;;;;;;;-0.65;75.84;100038.47;5017463;27;103203;-73
2022/02/28 03:00:20;;;;;;;8.37;7.43;;;;;;;-0.62;75.18;100039.31;5019203;27;102603;-73
2022/02/28 03:03:05;;;;;;;9.87;7.53;;;;;;;-0.55;75.24;100044.47;5014130;27;104377;-73
2022/02/28 03:05:34;;;;;;;10.83;7.77;;;;;;;-0.56;74.41;100042.75;5018443;27;103343;-72
2022/02/28 03:08:02;;;;;;;9.90;7.57;;;;;;;-0.94;75.94;100043.84;5018999;27;103376;-68
2022/02/28 03:10:32;;;;;;;7.50;6.20;;;;;;;-0.82;76.42;100043.78;5019446;27;102628;-68
2022/02/28 03:13:03;;;;;;;9.20;7.20;;;;;;;-0.65;75.59;100049.75;5022295;27;103721;-68
2022/02/28 03:15:31;;;;;;;7.27;5.87;;;;;;;-0.71;75.67;100054.97;5016243;27;104156;-68
2022/02/28 03:18:00;;;;;;;8.47;6.27;;;;;;;-0.76;76.22;100053.25;5017407;27;104074;-71
2022/02/28 03:20:29;;;;;;;10.23;8.30;;;;;;;-0.94;76.50;100046.44;5021658;27;102773;-71
2022/02/28 03:22:57;;;;;;;6.50;5.60;;;;;;;-0.71;75.92;100048.91;5022302;27;103826;-71
2022/02/28 03:25:26;;;;;;;9.10;7.93;;;;;;;-0.84;75.10;100048.09;5019187;27;106155;-68
2022/02/28 03:28:01;;;;;;;10.33;8.40;;;;;;;-0.77;75.80;100049.78;5021977;27;102704;-68
2022/02/28 03:30:30;;;;;;;10.60;8.07;;;;;;;-0.89;76.65;100049.84;5019492;27;102739;-68
2022/02/28 03:32:58;;;;;;;9.20;7.70;;;;;;;-0.84;76.56;100048.09;5019294;27;103508;-68
2022/02/28 03:35:29;;;;;;;10.97;7.90;;;;;;;-1.14;77.19;100053.44;5019149;27;103331;-68
2022/02/28 03:37:58;;;;;;;9.37;7.50;;;;;;;-1.40;78.38;100048.34;5020353;27;104243;-68
2022/02/28 03:40:27;;;;;;;9.50;6.90;;;;;;;-1.07;78.17;100060.34;5021735;27;102609;-68
2022/02/28 03:42:57;;;;;;;11.30;7.63;;;;;;;-0.93;77.31;100050.75;5024022;27;104017;-68
2022/02/28 03:45:33;;;;;;;7.67;6.50;;;;;;;-0.93;77.13;100048.16;5024897;27;104033;-68
2022/02/28 03:48:01;;;;;;;9.40;7.90;;;;;;;-1.33;77.80;100051.78;5020735;27;106384;-68
2022/02/28 03:50:48;;;;;;;9.97;8.03;;;;;;;-1.46;79.30;100055.28;5025750;27;102659;-68
2022/02/28 03:53:16;;;;;;;8.40;6.83;;;;;;;-1.21;78.25;100056.94;5024126;27;103891;-69
2022/02/28 03:55:44;;;;;;;10.90;7.90;;;;;;;-1.71;78.79;100053.63;5021596;27;106161;-69
2022/02/28 03:58:12;;;;;;;7.40;6.60;;;;;;;-1.38;79.67;100048.34;5025063;27;103203;-68
2022/02/28 04:00:41;;;;;;;10.50;8.10;;;;;;;-1.25;78.08;100039.66;5022045;27;102874;-68
2022/02/28 04:03:12;;;;;;;8.07;6.50;;;;;;;-1.20;78.40;100048.25;5025087;27;104141;-69
2022/02/28 04:05:41;;;;;;;8.23;6.13;;;;;;;-1.04;77.66;100038.69;5020507;27;104127;-68
2022/02/28 04:08:09;;;;;;;9.37;7.13;;;;;;;-1.19;77.85;100042.22;5018915;27;103244;-69
2022/02/28 04:10:39;;;;;;;9.47;7.73;;;;;;;-1.10;76.99;100031.81;5013145;27;102592;-68
2022/02/28 04:13:10;;;;;;;8.57;7.63;;;;;;;-1.24;77.35;100031.88;5025707;27;103546;-68
2022/02/28 04:15:42;;;;;;;11.97;8.57;;;;;;;-1.56;79.55;100027.66;5020833;27;104368;-71
2022/02/28 04:18:11;;;;;;;10.43;7.63;;;;;;;-1.46;79.01;100027.59;5027206;27;105212;-73
2022/02/28 04:21:17;;;;;;;8.07;6.37;;;;;;;-1.17;78.41;100027.50;5017883;27;102602;-72
2022/02/28 04:23:46;;;;;;;9.63;7.27;;;;;;;-1.26;77.92;100027.53;5018923;27;103804;-72
2022/02/28 04:26:14;;;;;;;7.83;6.43;;;;;;;-1.15;78.07;100035.28;5022714;27;103831;-72
2022/02/28 04:28:44;;;;;;;9.67;7.80;;;;;;;-1.33;77.38;100037.09;5023825;27;104458;-72
2022/02/28 04:31:14;;;;;;;11.90;8.13;;;;;;;-1.68;79.46;100038.06;5021000;27;102901;-72
2022/02/28 04:33:42;;;;;;;9.97;7.87;;;;;;;-1.63;79.28;100034.59;5018329;27;102749;-72
2022/02/28 04:36:12;;;;;;;8.40;6.33;;;;;;;-1.48;79.24;100036.25;5020830;27;103842;-72
2022/02/28 04:38:40;;;;;;;9.27;7.10;;;;;;;-1.41;78.58;100035.38;5020132;27;104119;-72
2022/02/28 04:41:07;;;;;;;10.77;8.23;;;;;;;-2.01;80.19;100039.81;5020410;27;102718;-72
2022/02/28 04:43:37;;;;;;;9.27;7.57;;;;;;;-1.77;80.88;100034.59;5019284;27;103762;-69
2022/02/28 04:46:05;;;;;;;7.83;6.57;;;;;;;-1.50;79.80;100038.88;5015647;27;103327;-69
2022/02/28 04:48:39;;;;;;;10.27;8.57;;;;;;;-1.69;78.81;100041.50;5024839;27;103167;-69
2022/02/28 04:51:31;;;;;;;10.90;7.90;;;;;;;-1.58;78.84;100045.81;5022535;27;102719;-69
2022/02/28 04:54:00;;;;;;;8.70;6.83;;;;;;;-1.73;79.09;100050.16;5018896;27;102799;-69
2022/02/28 04:56:28;;;;;;;8.63;7.03;;;;;;;-1.60;79.45;100046.69;5020310;27;104053;-69
2022/02/28 04:58:58;;;;;;;11.43;7.43;;;;;;;-1.68;79.14;100043.25;5018689;27;104241;-69
2022/02/28 05:01:39;;;;;;;9.87;8.33;;;;;;;-1.54;78.15;100052.69;5023081;27;102810;-69
2022/02/28 05:04:29;;;;;;;12.97;7.30;;;;;;;-1.73;79.08;100060.50;5021705;27;104003;-69
2022/02/28 05:06:57;;;;;;;11.40;8.13;;;;;;;-1.82;78.86;100057.06;5016885;27;103803;-73
2022/02/28 05:09:26;;;;;;;10.47;7.37;;;;;;;-1.87;78.67;100065.72;5014594;27;106626;-74
2022/02/28 05:11:54;;;;;;;13.80;8.23;;;;;;;-1.91;79.00;100067.44;5021592;27;102670;-74
2022/02/28 05:14:22;;;;;;;14.63;8.23;;;;;;;-2.20;79.09;100071.78;5023817;27;103704;-69
2022/02/28 05:16:50;;;;;;;11.43;7.90;;;;;;;-1.93;79.79;100069.19;5020764;27;104090;-69
2022/02/28 05:19:25;;;;;;;10.63;6.70;;;;;;;-1.90;78.86;100069.19;5017081;27;105466;-74
2022/02/28 05:21:56;;;;;;;15.03;9.03;;;;;;;-2.24;79.70;100067.44;5015783;27;102588;-74
2022/02/28 05:24:27;;;;;;;14.17;9.03;;;;;;;-2.27;80.51;100075.22;5021210;27;103334;-69
2022/02/28 05:26:55;;;;;;;14.43;7.90;;;;;;;-2.31;81.80;100073.50;5021147;27;104444;-72
2022/02/28 05:29:23;;;;;;;11.83;8.33;;;;;;;-2.04;80.86;100081.28;5022691;27;104086;-71
2022/02/28 05:31:51;;;;;;;11.50;9.48;;;;;;;-1.42;78.30;100075.13;5019321;27;103173;-71
2022/02/28 05:34:40;;;;;;;10.63;9.52;;;;;;;-1.09;76.37;100067.25;5020539;27;103696;-72
2022/02/28 05:37:10;;;;;;;10.07;8.98;;;;;;;-0.99;75.94;100074.13;5017072;27;105513;-65
2022/02/28 05:40:12;;;;;;;11.60;10.35;;;;;;;-1.16;76.00;100070.75;5005092;27;104126;-71
2022/02/28 05:42:42;;;;;;;12.30;7.57;;;;;;;-2.08;80.19;100074.38;5020659;27;102604;-72
2022/02/28 05:45:11;;;;;;;12.33;8.33;;;;;;;-1.81;79.82;100074.34;5026138;27;103716;-66
2022/02/28 05:47:48;;;;;;;12.80;8.13;;;;;;;-1.81;78.98;100070.91;5023953;27;104152;-72
2022/02/28 05:50:16;;;;;;;12.40;8.87;;;;;;;-1.78;78.16;100074.34;5018975;27;104115;-72
2022/02/28 05:52:48;;;;;;;12.73;8.53;;;;;;;-2.04;79.12;100078.69;5024449;27;103116;-72
2022/02/28 05:55:19;;;;;;;13.27;8.67;;;;;;;-2.03;79.50;100083.00;5020479;27;104543;-66
2022/02/28 05:57:52;;;;;;;18.67;9.40;;;;;;;-1.87;79.96;100076.94;5023377;27;103482;-66
2022/02/28 06:00:20;;;;;;;15.27;9.17;;;;;;;-2.26;81.05;100089.91;5019287;27;103199;-65
2022/02/28 06:02:50;;;;;;;20.60;11.23;;;;;;;-2.10;81.06;100090.75;5019092;27;102824;-71
2022/02/28 06:05:18;;;;;;;12.00;8.93;;;;;;;-2.21;81.42;100089.88;5021255;27;103014;-72
2022/02/28 06:07:50;;;;;;;11.70;7.97;;;;;;;-2.03;81.12;100082.13;5016345;27;104642;-72
2022/02/28 06:10:18;;;;;;;11.67;7.60;;;;;;;-1.89;79.88;100081.28;5023337;27;103337;-72
2022/02/28 06:12:46;;;;;;;12.87;9.20;;;;;;;-2.01;78.84;100086.44;5022560;27;102836;-72
2022/02/28 06:15:27;;;;;;;15.97;8.77;;;;;;;-1.97;79.71;100093.38;5017666;27;102804;-72
2022/02/28 06:17:56;;;;;;;11.10;7.70;;;;;;;-2.00;80.71;100093.38;5019017;27;104417;-72
2022/02/28 06:20:23;;;;;;;10.50;7.90;;;;;;;-1.95;80.86;100095.94;5029273;27;103201;-72
2022/02/28 06:22:53;;;;;;;11.00;8.30;;;;;;;-1.80;80.24;100096.78;5022669;27;102704;-72
2022/02/28 06:25:21;;;;;;;10.73;7.00;;;;;;;-1.78;79.46;100105.44;5020604;27;102696;-72
2022/02/28 06:27:51;;;;;;;8.57;6.80;;;;;;;-1.67;79.40;100101.97;5018770;27;102696;-71
2022/02/28 06:30:40;;;;;;;10.67;7.40;;;;;;;-1.53;78.88;100105.41;5022589;27;103245;-72
2022/02/28 06:33:08;;;;;;;15.27;8.93;;;;;;;-1.54;78.05;100101.06;5018522;27;102700;-72
2022/02/28 06:35:37;;;;;;;11.20;8.27;;;;;;;-1.49;78.78;100108.00;5020282;27;104059;-66
2022/02/28 06:38:09;;;;;;;12.93;8.70;;;;;;;-1.47;77.57;100101.09;5023435;27;104026;-66
2022/02/28 06:40:38;;;;;;;16.87;8.87;;;;;;;-1.50;77.06;100111.47;5025632;27;103271;-72
2022/02/28 06:43:07;;;;;;;12.70;8.30;;;;;;;-1.47;77.93;100105.41;5017662;27;102587;-72
2022/02/28 06:45:35;;;;;;;9.47;7.57;;;;;;;-1.40;77.87;100109.69;5015893;27;103878;-71
2022/02/28 06:48:03;;;;;;;12.00;7.57;;;;;;;-1.28;77.74;100107.06;5021846;27;103299;-66
2022/02/28 06:50:31;;;;;;;10.07;7.83;;;;;;;-1.15;77.54;100108.75;5020308;27;103277;-71
2022/02/28 06:52:59;;;;;;;11.27;7.37;;;;;;;-1.04;77.76;100112.22;5016484;27;102590;-65
2022/02/28 06:55:40;;;;;;;9.43;7.57;;;;;;;-0.92;77.01;100113.88;5019785;27;102675;-72
2022/02/28 06:58:08;;;;;;;10.37;7.87;;;;;;;-0.83;76.82;100112.09;5021237;27;104454;-71
2022/02/28 07:00:37;;;;;;;11.33;8.33;;;;;;;-0.73;76.18;100113.78;5019995;27;103289;-72
2022/02/28 07:03:14;;;;;;;9.07;6.60;;;;;;;-0.65;76.04;100117.22;5019779;27;102757;-72
2022/02/28 07:05:47;;;;;;;12.10;8.27;;;;;;;-0.65;76.51;100111.16;5024941;27;103617;-71
2022/02/28 07:08:16;;;;;;;14.93;9.70;;;;;;;-0.52;76.07;100117.13;5022156;27;103819;-71
2022/02/28 07:10:47;;;;;;;11.77;7.83;;;;;;;-0.50;77.25;100120.59;5017554;27;102663;-66
2022/02/28 07:13:15;;;;;;;12.97;9.07;;;;;;;-0.25;76.46;100119.56;5027561;27;102678;-66
2022/02/28 07:15:44;;;;;;;13.10;8.47;;;;;;;-0.05;75.72;100125.50;5020288;27;102751;-66
2022/02/28 07:18:15;;;;;;;14.07;9.30;;;;;;;0.18;75.30;100117.53;5028354;27;104034;-66
2022/02/28 07:20:43;;;;;;;10.83;8.17;;;;;;;0.44;75.04;100121.63;5027560;27;103200;-64
2022/02/28 07:23:11;;;;;;;15.97;9.00;;;;;;;0.66;74.40;100127.47;5023818;27;102683;-71
2022/02/28 07:25:39;;;;;;;12.70;8.47;;;;;;;1.02;73.30;100115.81;5024415;27;102639;-65
2022/02/28 07:28:09;;;;;;;15.23;9.43;;;;;;;1.20;72.84;100122.53;5021758;27;103240;-65
2022/02/28 07:30:37;;;;;;;16.83;9.70;;;;;;;1.23;72.05;100115.56;5019549;27;103180;-65
2022/02/28 07:33:05;;;;;;;16.07;9.00;;;;;;;1.47;71.99;100117.84;5022717;27;102622;-65
2022/02/28 07:35:34;;;;;;;11.57;8.97;;;;;;;1.73;71.45;100114.88;5023052;27;102672;-65
2022/02/28 07:38:01;;;;;;;15.57;10.40;;;;;;;2.02;70.36;100122.25;5023922;27;103682;-65
2022/02/28 07:40:29;;;;;;;10.43;9.20;;;;;;;2.38;69.60;100113.84;5025224;27;103323;-71
2022/02/28 07:42:57;;;;;;;13.07;9.27;;;;;;;2.66;68.75;100117.69;5023816;27;102788;-65
2022/02/28 07:45:27;;;;;;;14.93;9.47;;;;;;;3.09;66.66;100119.50;5024220;27;102764;-67
2022/02/28 07:47:55;;;;;;;12.90;8.83;;;;;;;3.19;64.83;100115.78;5027825;27;103861;-66
2022/02/28 07:50:23;;;;;;;13.57;8.20;;;;;;;3.40;64.88;100110.09;5021990;27;104003;-67
2022/02/28 07:52:51;;;;;;;13.13;7.83;;;;;;;3.59;63.42;100116.69;5021926;27;102638;-67
2022/02/28 07:55:19;;;;;;;11.10;8.33;;;;;;;2.57;67.23;100106.53;5023416;27;102707;-66
2022/02/28 07:57:47;;;;;;;14.43;9.23;;;;;;;2.82;65.58;100116.50;5017527;27;103227;-65
2022/02/28 08:00:15;;;;;;;13.67;8.87;;;;;;;3.09;65.93;100119.50;5023037;27;103312;-72
2022/02/28 08:02:45;;;;;;;16.80;10.60;;;;;;;3.20;65.37;100120.13;5024219;27;102592;-66
2022/02/28 08:05:13;;;;;;;13.20;9.27;;;;;;;3.23;66.23;100130.53;5023291;27;104326;-66
2022/02/28 08:07:46;;;;;;;15.63;9.90;;;;;;;3.27;66.47;100121.72;5019607;27;103797;-72
2022/02/28 08:10:14;;;;;;;11.67;8.97;;;;;;;4.42;61.96;100121.69;5025070;27;103220;-71
2022/02/28 08:12:44;;;;;;;11.47;9.27;;;;;;;3.66;60.19;100123.47;5020720;27;102563;-71
2022/02/28 08:15:12;;;;;;;17.47;10.60;;;;;;;2.68;63.26;100121.13;5023769;27;103706;-72
2022/02/28 08:17:40;;;;;;;11.07;9.40;;;;;;;3.65;62.06;100121.75;5025848;27;103273;-71
2022/02/28 08:20:12;;;;;;;14.40;10.13;;;;;;;3.59;61.32;100121.91;5023913;27;103256;-72
2022/02/28 08:22:40;;;;;;;11.00;9.17;;;;;;;3.66;62.98;100131.31;5023800;27;102674;-72
2022/02/28 08:25:09;;;;;;;12.63;9.53;;;;;;;3.21;63.05;100135.75;5021068;27;102569;-66
2022/02/28 08:27:38;;;;;;;14.43;10.43;;;;;;;3.75;62.38;100133.75;5022365;27;103872;-67
2022/02/28 08:30:08;;;;;;;12.73;10.33;;;;;;;4.68;62.06;100140.22;5023436;27;103198;-66
2022/02/28 08:32:36;;;;;;;11.00;9.57;;;;;;;5.06;58.79;100140.03;5023076;27;102551;-66
2022/02/28 08:35:04;;;;;;;10.00;9.00;;;;;;;5.48;58.33;100144.97;5026608;27;103530;-66
2022/02/28 08:37:34;;;;;;;12.87;10.30;;;;;;;5.69;58.05;100144.34;5023094;27;103656;-72
2022/02/28 08:40:02;;;;;;;13.43;9.90;;;;;;;5.72;56.36;100141.63;5021926;27;103145;-73
2022/02/28 08:42:30;;;;;;;13.93;10.40;;;;;;;6.01;55.73;100146.00;5021519;27;102686;-72
2022/02/28 08:44:58;;;;;;;13.10;9.90;;;;;;;5.11;56.59;100155.63;5023684;27;102699;-66
2022/02/28 08:47:26;;;;;;;9.43;8.40;;;;;;;6.16;57.00;100146.41;5022748;27;103550;-66
2022/02/28 08:49:54;;;;;;;13.50;10.23;;;;;;;5.26;56.76;100150.84;5018488;27;103180;-72
2022/02/28 08:52:22;;;;;;;13.43;9.90;;;;;;;6.10;55.24;100141.34;5023033;27;102701;-73
2022/02/28 08:54:51;;;;;;;13.17;11.40;;;;;;;5.68;56.13;100147.88;5021020;27;102625;-73
2022/02/28 08:57:20;;;;;;;12.80;10.23;;;;;;;6.04;54.32;100138.03;5021336;27;103717;-73
2022/02/28 08:59:48;;;;;;;12.33;10.10;;;;;;;6.70;54.41;100132.38;5022045;27;102703;-73
2022/02/28 09:02:17;;;;;;;14.07;9.93;;;;;;;6.92;53.89;100134.22;5018631;27;102637;-73
2022/02/28 09:04:47;;;;;;;13.03;9.70;;;;;;;7.32;52.40;100131.03;5020794;27;103914;-72
2022/02/28 09:07:15;;;;;;;13.00;10.57;;;;;;;6.52;52.11;100132.97;5017932;27;103984;-73
2022/02/28 09:09:43;;;;;;;13.07;10.20;;;;;;;7.27;53.62;100132.94;5017558;27;103175;-73
2022/02/28 09:12:12;;;;;;;12.97;10.20;;;;;;;7.45;50.79;100134.91;5030258;27;102634;-73
2022/02/28 09:14:40;;;;;;;11.50;10.30;;;;;;;6.81;52.30;100138.13;5020070;27;104213;-73
2022/02/28 09:17:08;;;;;;;12.63;10.17;;;;;;;6.33;51.74;100138.84;5021405;27;104076;-73
2022/02/28 09:19:36;;;;;;;11.07;9.33;;;;;;;7.76;51.28;100128.47;5018997;27;103284;-73
2022/02/28 09:22:05;;;;;;;11.50;10.27;;;;;;;6.35;51.80;100137.03;5023169;27;103091;-73
2022/02/28 09:24:33;;;;;;;14.23;10.53;;;;;;;5.61;53.71;100136.72;5020543;27;102622;-73
2022/02/28 09:27:04;;;;;;;16.57;10.93;;;;;;;6.09;52.80;100131.75;5019324;27;104115;-73
2022/02/28 09:29:34;;;;;;;10.63;9.57;;;;;;;6.95;52.25;100130.63;5022517;27;103187;-72
2022/02/28 09:32:04;;;;;;;11.77;10.10;;;;;;;8.08;49.40;100120.19;5018214;27;102597;-72
2022/02/28 09:34:32;;;;;;;12.03;10.20;;;;;;;8.50;48.86;100118.47;5028113;27;102706;-73
2022/02/28 09:37:01;;;;;;;10.70;9.37;;;;;;;7.05;48.65;100108.34;5023708;27;103671;-73
2022/02/28 09:39:29;;;;;;;11.27;9.97;;;;;;;8.21;48.98;100110.88;5023000;27;103157;-75
2022/02/28 09:42:24;;;;;;;12.53;9.37;;;;;;;8.32;49.00;100108.69;5020709;27;102949;-73
2022/02/28 09:45:12;;;;;;;10.93;9.50;;;;;;;8.84;48.24;100106.50;5023632;27;102613;-67
2022/02/28 09:47:59;;;;;;;11.87;10.17;;;;;;;8.77;47.06;100099.78;5020513;27;103873;-67
2022/02/28 09:50:53;;;;;;;12.47;10.07;;;;;;;8.86;45.97;100116.06;4980683;27;103186;-67
2022/02/28 09:53:36;;;;;;;9.57;8.57;;;;;;;9.12;47.26;100115.75;5020181;27;103058;-67
2022/02/28 09:56:28;;;;;;;10.80;9.27;;;;;;;8.99;46.56;100111.97;5015695;27;102647;-73
2022/02/28 09:58:56;;;;;;;11.50;9.67;;;;;;;9.08;47.03;100115.97;5021490;27;103147;-73
2022/02/28 10:01:47;;;;;;;11.10;9.93;;;;;;;8.82;46.28;100113.59;5021606;27;105471;-72
2022/02/28 10:04:17;;;;;;;11.27;9.43;;;;;;;9.11;46.73;100121.13;5023104;27;102670;-73
2022/02/28 10:06:48;;;;;;;10.40;9.30;;;;;;;7.81;45.92;100122.13;5022626;27;102861;-73
2022/02/28 10:09:18;;;;;;;11.60;9.33;;;;;;;7.76;47.78;100123.22;5020316;27;103374;-73
2022/02/28 10:11:49;;;;;;;11.37;10.00;;;;;;;8.76;45.97;100113.91;5023160;27;104153;-72
2022/02/28 10:14:18;;;;;;;10.90;9.70;;;;;;;9.11;45.70;100115.84;5016448;27;102714;-72
2022/02/28 10:16:50;;;;;;;11.40;9.77;;;;;;;8.98;45.46;100114.69;5020315;27;103889;-72
2022/02/28 10:19:25;;;;;;;11.07;9.93;;;;;;;9.45;45.24;100108.13;5020699;27;103807;-67
2022/02/28 10:21:54;;;;;;;10.50;9.40;;;;;;;9.53;44.96;100115.69;5025662;27;102551;-67
2022/02/28 10:24:30;;;;;;;10.73;9.47;;;;;;;8.65;44.71;100116.97;5018067;27;102864;-67
2022/02/28 10:27:18;;;;;;;11.33;9.50;;;;;;;8.49;44.36;100115.91;5021195;27;102688;-67
2022/02/28 10:30:06;;;;;;;10.27;8.90;;;;;;;8.84;44.82;100106.50;5005311;27;103072;-67
2022/02/28 10:32:54;;;;;;;9.67;8.67;;;;;;;8.99;45.06;100097.91;5006955;27;102780;-67
2022/02/28 10:36:10;;;;;;;11.30;10.07;;;;;;;9.08;44.15;100103.66;4977827;27;102882;-67
2022/02/28 10:38:47;;;;;;;11.17;9.63;;;;;;;9.47;43.72;100093.09;5011361;27;103016;-66
2022/02/28 10:41:23;;;;;;;11.03;9.30;;;;;;;9.41;43.37;100096.00;5020640;27;104205;-67
2022/02/28 10:43:54;;;;;;;11.53;9.60;;;;;;;8.96;43.86;100093.63;5012018;27;104357;-67
2022/02/28 10:46:24;;;;;;;10.37;9.33;;;;;;;9.74;42.82;100091.78;5016745;27;102713;-67
2022/02/28 10:49:05;;;;;;;10.63;9.53;;;;;;;8.35;43.64;100095.41;5015020;27;102879;-67
2022/02/28 10:51:45;;;;;;;10.67;8.93;;;;;;;8.74;43.00;100084.97;5010846;27;103277;-67
2022/02/28 10:54:18;;;;;;;10.23;9.13;;;;;;;9.01;43.38;100091.66;5012821;27;103195;-68
2022/02/28 10:56:48;;;;;;;10.73;9.60;;;;;;;8.61;43.96;100084.63;5009361;27;102662;-72
2022/02/28 10:59:17;;;;;;;11.07;8.37;;;;;;;9.57;42.18;100078.53;5012660;27;102865;-72
2022/02/28 11:01:46;;;;;;;10.50;8.93;;;;;;;9.28;41.34;100079.03;5014118;27;103887;-73
2022/02/28 11:04:15;;;;;;;10.17;7.73;;;;;;;9.66;40.09;100075.47;4998786;27;103601;-72
2022/02/28 11:06:49;;;;;;;8.00;7.20;;;;;;;10.25;41.25;100077.03;5010051;27;102759;-72
2022/02/28 11:09:30;;;;;;;11.23;8.10;;;;;;;10.06;39.84;100070.94;5014613;27;102938;-72
2022/02/28 11:12:33;;;;;;;9.60;8.43;;;;;;;9.25;40.01;100077.41;5015706;27;103356;-74
2022/02/28 11:15:04;;;;;;;9.97;8.30;;;;;;;9.94;38.89;100067.09;5015411;27;103230;-72
2022/02/28 11:17:34;;;;;;;11.07;7.80;;;;;;;10.62;39.54;100071.63;5012611;27;103187;-66
2022/02/28 11:20:08;;;;;;;9.43;8.53;;;;;;;10.68;38.88;100055.47;5008117;27;102858;-66
2022/02/28 11:22:37;;;;;;;9.87;8.87;;;;;;;10.08;39.85;100058.50;5017361;27;103662;-66
2022/02/28 11:25:09;;;;;;;9.23;8.13;;;;;;;10.29;40.20;100057.47;5015424;27;103319;-66
2022/02/28 11:27:38;;;;;;;10.60;8.43;;;;;;;10.79;38.66;100061.06;5020467;27;102711;-66
2022/02/28 11:30:08;;;;;;;10.37;7.87;;;;;;;10.48;39.43;100052.97;5016350;27;102829;-68
2022/02/28 11:32:37;;;;;;;10.10;8.63;;;;;;;10.65;39.19;100055.63;5019187;27;103717;-69